Alliance, NC

12:02 AM EST on November 24, 2014 (GMT -0500)
Arapahoe, NC | Change Station
CLOSE
Current Station
Personal Weather Station
Location: South Arapahoe, NC
Elevation: 75 ft
Nearby Weather Stations
Active Advisory: Special Statement

Elev 75 ft 35.01 °N, 76.82 °W | Updated 2 minutes ago

Rain
Rain
67.9 °F
Feels Like 67.9 °F
N
1.0
Wind Variable Wind from SE
Gusts 16.0 mph

Today
High -- | Low -- °F
--% Chance of Precip.
Yesterday
High -- | Low -- °F
Precip. -- in
6:50 AM 4:56 PM
Waxing Crescent, 3% visible
Pressure 29.88 in
Visibility 2.0 miles
Clouds Overcast 1500 ft
Dew Point 67 °F
Humidity 95%
Rainfall 0.02 in
Snow Depth Not available.
UV 0.0 out of 12
Pollen .10 out of 12
Air Quality Not available.
Flu Activity Not available.
SPECI KEWN 240457Z AUTO 17016G23KT 2SM VCTS +RA BR OVC015 21/19 A2988 RMK AO2 LTG DSNT S AND W P0006 T02110189

More Conditions Fewer Conditions

Pressure 29.88 in
Visibility 2.0 miles
Clouds Overcast 1500 ft
Dew Point 67 °F
Humidity 95%
Rainfall 0.02 in
Snow Depth Not available.
UV 0.0 out of 12
Pollen .10 out of 12
Air Quality Not available.
Flu Activity Not available.
SPECI KEWN 240457Z AUTO 17016G23KT 2SM VCTS +RA BR OVC015 21/19 A2988 RMK AO2 LTG DSNT S AND W P0006 T02110189

More Conditions Fewer Conditions

10-Day Weather Forecast

Almanac

Astronomy

Nov. 24, 2014 Rise Set
Actual Time
Civil Twilight
Nautical Twilight
Astronomical Twilight
Moon
Length of Visible Light
Length of Day
Tomorrow will be .
, % of the Moon is Illuminated

Today's Extremes

State Highs State Lows

Community

WunderPhotos

Upload Photos

1,773,269 photos uploaded!

WunderBlogs® & News

Nearby

Air Quality

  Air Quality AQ Index Pollutant
Not available.

Snow Depth

Station Depth Elevation

Earthquake Activity

City Distance Mag. Time & Date
Minimum magnitude displayed is 2.5.

Coastal Water Temperatures

Place Temperature

Nearby Weather Stations